createdAt,value
2023-05-05T00:00:18.587Z,23.75
2023-05-05T00:01:03.715Z,23.72
2023-05-05T00:02:03.615Z,23.72
2023-05-05T00:03:03.537Z,23.74
2023-05-05T00:04:03.357Z,23.73
2023-05-05T00:05:03.249Z,23.74
2023-05-05T00:06:03.068Z,23.73
2023-05-05T00:07:02.918Z,23.73
2023-05-05T00:08:02.772Z,23.73
2023-05-05T00:09:02.641Z,23.74
2023-05-05T00:10:02.515Z,23.74
2023-05-05T00:11:02.375Z,23.74
2023-05-05T00:12:02.308Z,23.75
2023-05-05T00:13:02.131Z,23.73
2023-05-05T00:14:01.980Z,23.73
2023-05-05T00:15:08.400Z,23.71
2023-05-05T00:16:01.697Z,23.71
2023-05-05T00:17:01.620Z,23.71
2023-05-05T00:18:01.511Z,23.71
2023-05-05T00:19:01.339Z,23.71
2023-05-05T00:20:01.151Z,23.71
2023-05-05T00:21:01.077Z,23.69
2023-05-05T00:22:00.881Z,23.71
2023-05-05T00:23:00.761Z,23.71
2023-05-05T00:24:00.611Z,23.71
2023-05-05T00:25:00.480Z,23.72
2023-05-05T00:26:00.336Z,23.71
2023-05-05T00:27:00.217Z,23.70
2023-05-05T00:28:00.095Z,23.69
2023-05-05T00:28:59.989Z,23.71
2023-05-05T00:29:59.808Z,23.69
2023-05-05T00:30:59.694Z,23.71
2023-05-05T00:31:59.558Z,23.69
2023-05-05T00:32:59.390Z,23.70
2023-05-05T00:33:59.244Z,23.69
2023-05-05T00:34:59.105Z,23.71
2023-05-05T00:35:58.977Z,23.69
2023-05-05T00:36:58.847Z,23.69
2023-05-05T00:37:58.749Z,23.68
2023-05-05T00:38:58.616Z,23.69
2023-05-05T00:39:58.431Z,23.69
2023-05-05T00:40:58.319Z,23.68
2023-05-05T00:41:58.175Z,23.69
2023-05-05T00:42:58.033Z,23.67
2023-05-05T00:43:57.895Z,23.68
2023-05-05T00:44:57.749Z,23.68
2023-05-05T00:45:57.623Z,23.68
2023-05-05T00:46:57.487Z,23.67
2023-05-05T00:47:57.365Z,23.66
2023-05-05T00:48:57.236Z,23.66
2023-05-05T00:49:57.053Z,23.67
2023-05-05T00:50:56.940Z,23.67
2023-05-05T00:51:56.821Z,23.68
2023-05-05T00:52:56.725Z,23.67
2023-05-05T00:53:56.585Z,23.66
2023-05-05T00:54:56.480Z,23.67
2023-05-05T00:55:56.415Z,23.67
2023-05-05T00:56:56.278Z,23.67
2023-05-05T00:57:56.194Z,23.67
2023-05-05T00:58:56.071Z,23.65
2023-05-05T00:59:55.943Z,23.66
2023-05-05T01:00:55.844Z,23.66
2023-05-05T01:01:55.769Z,23.65
2023-05-05T01:02:55.815Z,23.65
2023-05-05T01:03:55.552Z,23.65
2023-05-05T01:04:55.435Z,23.65
2023-05-05T01:05:55.349Z,23.64
2023-05-05T01:06:55.172Z,23.64
2023-05-05T01:07:55.082Z,23.64
2023-05-05T01:08:54.966Z,23.64
2023-05-05T01:10:04.465Z,23.63
2023-05-05T01:10:55.724Z,23.62
2023-05-05T01:11:54.564Z,23.64
2023-05-05T01:12:54.449Z,23.64
2023-05-05T01:13:54.306Z,23.62
2023-05-05T01:14:54.167Z,23.63
2023-05-05T01:15:54.075Z,23.62
2023-05-05T01:16:53.917Z,23.63
2023-05-05T01:17:53.842Z,23.63
2023-05-05T01:18:53.686Z,23.63
2023-05-05T01:19:53.551Z,23.63
2023-05-05T01:20:53.449Z,23.63
2023-05-05T01:21:53.299Z,23.62
2023-05-05T01:22:53.184Z,23.61
2023-05-05T01:23:53.063Z,23.61
2023-05-05T01:24:52.904Z,23.60
2023-05-05T01:25:52.797Z,23.59
2023-05-05T01:26:52.673Z,23.61
2023-05-05T01:27:52.539Z,23.60
2023-05-05T01:28:52.415Z,23.59
2023-05-05T01:29:52.272Z,23.60
2023-05-05T01:30:52.133Z,23.59
2023-05-05T01:31:52.128Z,23.58
2023-05-05T01:32:51.897Z,23.58
2023-05-05T01:33:51.760Z,23.59
2023-05-05T01:34:51.662Z,23.60
2023-05-05T01:35:51.549Z,23.62
2023-05-05T01:36:51.460Z,23.61
2023-05-05T01:37:51.392Z,23.61
2023-05-05T01:38:51.230Z,23.61
2023-05-05T01:39:51.107Z,23.60
2023-05-05T01:40:51.009Z,23.61
2023-05-05T01:41:50.931Z,23.60
2023-05-05T01:42:50.799Z,23.60
2023-05-05T01:43:50.686Z,23.61
2023-05-05T01:44:50.590Z,23.61
2023-05-05T01:45:50.510Z,23.62
2023-05-05T01:46:50.381Z,23.60
2023-05-05T01:47:50.320Z,23.61
2023-05-05T01:48:50.169Z,23.59
2023-05-05T01:49:50.071Z,23.61
2023-05-05T01:50:49.921Z,23.61
2023-05-05T01:51:49.842Z,23.62
2023-05-05T01:52:49.716Z,23.61
2023-05-05T01:53:49.628Z,23.61
2023-05-05T01:54:49.511Z,23.62
2023-05-05T01:55:49.412Z,23.60
2023-05-05T01:56:49.307Z,23.59
2023-05-05T01:57:49.178Z,23.60
2023-05-05T01:58:49.083Z,23.61
2023-05-05T01:59:48.984Z,23.60
2023-05-05T02:00:48.880Z,23.60
2023-05-05T02:01:48.763Z,23.59
2023-05-05T02:02:48.708Z,23.60
2023-05-05T02:03:48.546Z,23.59
2023-05-05T02:04:48.503Z,23.59
2023-05-05T02:05:48.352Z,23.61
2023-05-05T02:06:48.230Z,23.59
2023-05-05T02:07:48.140Z,23.60
2023-05-05T02:08:48.001Z,23.59
2023-05-05T02:09:47.900Z,23.60
2023-05-05T02:10:47.803Z,23.58
2023-05-05T02:11:47.705Z,23.60
2023-05-05T02:12:47.687Z,23.57
2023-05-05T02:13:47.576Z,23.59
2023-05-05T02:14:47.416Z,23.57
2023-05-05T02:15:47.317Z,23.56
2023-05-05T02:16:47.190Z,23.58
2023-05-05T02:17:47.164Z,23.57
2023-05-05T02:18:47.021Z,23.58
2023-05-05T02:19:46.900Z,23.59
2023-05-05T02:20:46.783Z,23.59
2023-05-05T02:21:46.671Z,23.60
2023-05-05T02:22:46.602Z,23.59
2023-05-05T02:23:46.466Z,23.58
2023-05-05T02:24:46.377Z,23.58
2023-05-05T02:25:46.257Z,23.58
2023-05-05T02:26:46.166Z,23.58
2023-05-05T02:27:46.053Z,23.58
2023-05-05T02:28:45.944Z,23.58
2023-05-05T02:29:45.855Z,23.59
2023-05-05T02:30:45.743Z,23.59
2023-05-05T02:31:45.705Z,23.60
2023-05-05T02:32:45.535Z,23.58
2023-05-05T02:33:45.429Z,23.59
2023-05-05T02:34:45.347Z,23.59
2023-05-05T02:35:45.210Z,23.58
2023-05-05T02:36:45.115Z,23.58
2023-05-05T02:37:45.012Z,23.57
2023-05-05T02:38:44.896Z,23.57
2023-05-05T02:39:44.782Z,23.59
2023-05-05T02:40:44.688Z,23.59
2023-05-05T02:41:44.583Z,23.57
2023-05-05T02:42:44.551Z,23.59
2023-05-05T02:43:44.362Z,23.58
2023-05-05T02:44:44.258Z,23.57
2023-05-05T02:45:44.165Z,23.60
2023-05-05T02:46:44.092Z,23.59
2023-05-05T02:47:43.978Z,23.60
2023-05-05T02:48:43.808Z,23.59
2023-05-05T02:49:43.703Z,23.58
2023-05-05T02:50:43.570Z,23.58
2023-05-05T02:51:43.470Z,23.58
2023-05-05T02:52:43.337Z,23.57
2023-05-05T02:53:43.255Z,23.57
2023-05-05T02:54:43.104Z,23.58
2023-05-05T02:55:43.023Z,23.58
2023-05-05T02:56:42.863Z,23.58
2023-05-05T02:57:42.734Z,23.57
2023-05-05T02:58:42.603Z,23.58
2023-05-05T02:59:42.471Z,23.57
2023-05-05T03:00:42.343Z,23.57
2023-05-05T03:01:42.226Z,23.56
2023-05-05T03:02:42.191Z,23.58
2023-05-05T03:03:42.064Z,23.57
2023-05-05T03:04:41.836Z,23.57
2023-05-05T03:05:41.728Z,23.58
2023-05-05T03:06:41.592Z,23.58
2023-05-05T03:07:41.467Z,23.59
2023-05-05T03:08:41.326Z,23.58
2023-05-05T03:09:41.220Z,23.58
2023-05-05T03:10:41.091Z,23.59
2023-05-05T03:11:40.948Z,23.60
2023-05-05T03:12:40.857Z,23.60
2023-05-05T03:13:40.678Z,23.60
2023-05-05T03:14:40.559Z,23.58
2023-05-05T03:15:40.403Z,23.57
2023-05-05T03:16:40.357Z,23.58
2023-05-05T03:17:40.270Z,23.57
2023-05-05T03:18:40.054Z,23.58
2023-05-05T03:19:39.933Z,23.57
2023-05-05T03:20:39.831Z,23.57
2023-05-05T03:21:39.737Z,23.58
2023-05-05T03:22:39.643Z,23.58
2023-05-05T03:23:39.523Z,23.56
2023-05-05T03:24:39.415Z,23.57
2023-05-05T03:25:39.291Z,23.56
2023-05-05T03:26:39.193Z,23.55
2023-05-05T03:27:39.100Z,23.55
2023-05-05T03:28:38.990Z,23.56
2023-05-05T03:29:38.891Z,23.56
2023-05-05T03:30:38.854Z,23.55
2023-05-05T03:31:38.717Z,23.56
2023-05-05T03:32:38.638Z,23.57
2023-05-05T03:33:38.462Z,23.56
2023-05-05T03:34:38.350Z,23.57
2023-05-05T03:35:38.263Z,23.57
2023-05-05T03:36:38.158Z,23.56
2023-05-05T03:37:38.051Z,23.56
2023-05-05T03:38:37.952Z,23.56
2023-05-05T03:39:37.860Z,23.56
2023-05-05T03:40:44.168Z,23.56
2023-05-05T03:41:38.604Z,23.55
2023-05-05T03:42:37.512Z,23.56
2023-05-05T03:43:37.345Z,23.56
2023-05-05T03:44:37.214Z,23.56
2023-05-05T03:45:37.103Z,23.55
2023-05-05T03:46:36.947Z,23.57
2023-05-05T03:47:36.840Z,23.57
2023-05-05T03:48:36.685Z,23.57
2023-05-05T03:49:36.544Z,23.57
2023-05-05T03:50:36.444Z,23.58
2023-05-05T03:51:36.284Z,23.57
2023-05-05T03:52:36.154Z,23.56
2023-05-05T03:53:36.036Z,23.57
2023-05-05T03:54:35.887Z,23.58
2023-05-05T03:55:35.765Z,23.56
2023-05-05T03:56:35.634Z,23.57
2023-05-05T03:57:35.524Z,23.58
2023-05-05T03:58:35.459Z,23.57
2023-05-05T03:59:35.287Z,23.58
2023-05-05T04:00:35.228Z,23.54
2023-05-05T04:01:35.086Z,23.55
2023-05-05T04:02:35.089Z,23.55
2023-05-05T04:03:34.942Z,23.56
2023-05-05T04:04:34.891Z,23.55
2023-05-05T04:05:34.728Z,23.55
2023-05-05T04:06:34.589Z,23.57
2023-05-05T04:07:34.453Z,23.57
2023-05-05T04:08:34.364Z,23.55
2023-05-05T04:09:34.254Z,23.55
2023-05-05T04:10:34.148Z,23.56
2023-05-05T04:11:34.045Z,23.55
2023-05-05T04:12:34.009Z,23.55
2023-05-05T04:13:33.860Z,23.55
2023-05-05T04:14:33.746Z,23.55
2023-05-05T04:15:33.681Z,23.56
2023-05-05T04:16:33.562Z,23.55
2023-05-05T04:17:33.401Z,23.56
2023-05-05T04:18:33.243Z,23.55
2023-05-05T04:19:33.129Z,23.55
2023-05-05T04:20:32.976Z,23.55
2023-05-05T04:21:32.811Z,23.56
2023-05-05T04:22:32.702Z,23.54
2023-05-05T04:23:32.562Z,23.55
2023-05-05T04:24:32.462Z,23.55
2023-05-05T04:25:32.276Z,23.56
2023-05-05T04:26:32.131Z,23.55
2023-05-05T04:27:31.998Z,23.56
2023-05-05T04:28:31.859Z,23.56
2023-05-05T04:29:31.720Z,23.56
2023-05-05T04:30:31.568Z,23.55
2023-05-05T04:31:31.495Z,23.56
2023-05-05T04:32:31.338Z,23.54
2023-05-05T04:33:31.254Z,23.54
2023-05-05T04:34:31.124Z,23.56
2023-05-05T04:35:31.032Z,23.56
2023-05-05T04:36:30.916Z,23.57
2023-05-05T04:37:30.789Z,23.56
2023-05-05T04:38:30.748Z,23.55
2023-05-05T04:39:30.594Z,23.57
2023-05-05T04:40:30.521Z,23.56
2023-05-05T04:41:30.383Z,23.55
2023-05-05T04:42:30.289Z,23.53
2023-05-05T04:43:30.179Z,23.54
2023-05-05T04:44:30.110Z,23.55
2023-05-05T04:45:29.979Z,23.56
2023-05-05T04:46:29.866Z,23.56
2023-05-05T04:47:29.778Z,23.55
2023-05-05T04:48:29.697Z,23.55
2023-05-05T04:49:29.539Z,23.55
2023-05-05T04:50:29.458Z,23.56
2023-05-05T04:51:29.338Z,23.56
2023-05-05T04:52:29.240Z,23.56
2023-05-05T04:53:29.142Z,23.54
2023-05-05T04:54:29.010Z,23.55
2023-05-05T04:55:28.906Z,23.54
2023-05-05T04:56:28.801Z,23.54
2023-05-05T04:57:28.705Z,23.54
2023-05-05T04:58:28.651Z,23.55
2023-05-05T04:59:28.513Z,23.54
2023-05-05T05:00:28.401Z,23.54
2023-05-05T05:01:28.289Z,23.55
2023-05-05T05:02:28.318Z,23.56
2023-05-05T05:03:28.110Z,23.56
2023-05-05T05:04:27.969Z,23.56
2023-05-05T05:05:27.863Z,23.57
2023-05-05T05:06:27.767Z,23.57
2023-05-05T05:07:27.745Z,23.58
2023-05-05T05:08:27.574Z,23.57
2023-05-05T05:09:27.450Z,23.59
2023-05-05T05:10:27.330Z,23.59
2023-05-05T05:11:27.227Z,23.59
2023-05-05T05:12:27.138Z,23.59
2023-05-05T05:13:27.072Z,23.58
2023-05-05T05:14:26.904Z,23.58
2023-05-05T05:15:26.792Z,23.60
2023-05-05T05:16:26.724Z,23.61
2023-05-05T05:17:26.606Z,23.59
2023-05-05T05:18:26.510Z,23.59
2023-05-05T05:19:26.412Z,23.59
2023-05-05T05:20:26.266Z,23.60
2023-05-05T05:21:26.153Z,23.60
2023-05-05T05:22:26.027Z,23.59
2023-05-05T05:23:25.918Z,23.60
2023-05-05T05:24:25.820Z,23.61
2023-05-05T05:25:25.655Z,23.59
2023-05-05T05:26:25.593Z,23.61
2023-05-05T05:27:25.388Z,23.59
2023-05-05T05:28:25.249Z,23.60
2023-05-05T05:29:25.119Z,23.59
2023-05-05T05:30:25.006Z,23.61
2023-05-05T05:31:24.917Z,23.61
2023-05-05T05:32:24.761Z,23.60
2023-05-05T05:33:24.628Z,23.61
2023-05-05T05:34:24.476Z,23.58
2023-05-05T05:35:24.374Z,23.59
2023-05-05T05:36:24.196Z,23.60
2023-05-05T05:37:24.099Z,23.60
2023-05-05T05:38:23.978Z,23.61
2023-05-05T05:39:23.835Z,23.65
2023-05-05T05:40:23.642Z,23.67
2023-05-05T05:41:23.561Z,23.68
2023-05-05T05:42:23.395Z,23.72
2023-05-05T05:43:23.220Z,23.73
2023-05-05T05:44:23.087Z,23.76
2023-05-05T05:45:22.965Z,23.78
2023-05-05T05:46:22.901Z,23.79
2023-05-05T05:47:22.685Z,23.76
2023-05-05T05:48:22.555Z,23.79
2023-05-05T05:49:22.423Z,23.82
2023-05-05T05:50:22.469Z,23.84
2023-05-05T05:51:22.212Z,23.86
2023-05-05T05:52:22.011Z,23.87
2023-05-05T05:53:21.979Z,23.92
2023-05-05T05:54:21.741Z,23.95
2023-05-05T05:55:21.672Z,23.99
2023-05-05T05:56:21.467Z,24.02
2023-05-05T05:57:21.349Z,24.03
2023-05-05T05:58:21.207Z,24.06
2023-05-05T05:59:21.083Z,24.05
2023-05-05T06:00:21.044Z,24.08
2023-05-05T06:01:20.770Z,24.08
2023-05-05T06:02:20.710Z,24.08
2023-05-05T06:03:20.668Z,24.09
2023-05-05T06:04:20.472Z,24.07
2023-05-05T06:05:20.233Z,24.09
2023-05-05T06:06:20.087Z,24.11
2023-05-05T06:07:19.983Z,24.10
2023-05-05T06:08:19.854Z,24.10
2023-05-05T06:09:20.569Z,24.10
2023-05-05T06:10:27.868Z,24.10
2023-05-05T06:11:20.405Z,24.09
2023-05-05T06:12:19.276Z,24.08
2023-05-05T06:13:19.140Z,24.10
2023-05-05T06:14:20.142Z,24.09
2023-05-05T06:15:19.145Z,24.09
2023-05-05T06:16:19.140Z,24.10
2023-05-05T06:17:18.833Z,24.12
2023-05-05T06:18:18.843Z,24.13
2023-05-05T06:19:19.064Z,24.15
2023-05-05T06:20:18.472Z,24.16
2023-05-05T06:21:18.409Z,24.19
2023-05-05T06:22:18.190Z,24.20
2023-05-05T06:23:18.096Z,24.21
2023-05-05T06:24:17.922Z,24.23
2023-05-05T06:25:17.833Z,24.26
2023-05-05T06:26:17.690Z,24.29
2023-05-05T06:27:17.578Z,24.31
2023-05-05T06:28:17.470Z,24.32
2023-05-05T06:29:17.324Z,24.33
2023-05-05T06:30:17.252Z,24.35
2023-05-05T06:31:17.158Z,24.39
2023-05-05T06:32:17.038Z,24.42
2023-05-05T06:33:16.973Z,24.45
2023-05-05T06:34:16.833Z,24.47
2023-05-05T06:35:16.697Z,24.49
2023-05-05T06:36:16.558Z,24.52
2023-05-05T06:37:17.140Z,24.53
2023-05-05T06:38:16.279Z,24.55
2023-05-05T06:39:16.296Z,24.59
2023-05-05T06:40:15.959Z,24.62
2023-05-05T06:41:15.900Z,24.63
2023-05-05T06:42:15.654Z,24.65
2023-05-05T06:43:15.562Z,24.64
2023-05-05T06:44:15.641Z,24.65
2023-05-05T06:45:15.389Z,24.68
2023-05-05T06:46:15.389Z,24.70
2023-05-05T06:47:15.407Z,24.71
2023-05-05T06:48:15.149Z,24.72
2023-05-05T06:49:15.009Z,24.70
2023-05-05T06:50:14.866Z,24.70
2023-05-05T06:51:14.676Z,24.69
2023-05-05T06:52:14.544Z,24.69
2023-05-05T06:53:14.407Z,24.68
2023-05-05T06:54:14.328Z,24.68
2023-05-05T06:55:14.166Z,24.68
2023-05-05T06:56:13.957Z,24.65
2023-05-05T06:57:13.818Z,24.65
2023-05-05T06:58:13.738Z,24.64
2023-05-05T06:59:13.783Z,24.64
2023-05-05T07:00:13.565Z,24.65
2023-05-05T07:01:13.418Z,24.66
2023-05-05T07:02:13.213Z,24.65
2023-05-05T07:03:13.178Z,24.64
2023-05-05T07:04:13.097Z,24.64
2023-05-05T07:05:12.794Z,24.63
2023-05-05T07:06:12.662Z,24.62
2023-05-05T07:07:12.523Z,24.63
2023-05-05T07:08:12.383Z,24.62
2023-05-05T07:09:12.254Z,24.61
2023-05-05T07:10:12.080Z,24.62
2023-05-05T07:11:11.950Z,24.63
2023-05-05T07:12:11.819Z,24.62
2023-05-05T07:13:11.801Z,24.61
2023-05-05T07:14:11.538Z,24.63
2023-05-05T07:15:23.797Z,24.62
2023-05-05T07:16:12.321Z,24.62
2023-05-05T07:17:11.134Z,24.64
2023-05-05T07:18:11.539Z,24.66
2023-05-05T07:19:10.863Z,24.64
2023-05-05T07:20:10.938Z,24.63
2023-05-05T07:21:10.538Z,24.63
2023-05-05T07:22:10.407Z,24.62
2023-05-05T07:23:11.089Z,24.62
2023-05-05T07:24:10.211Z,24.63
2023-05-05T07:25:10.161Z,24.62
2023-05-05T07:26:09.832Z,24.61
2023-05-05T07:27:09.694Z,24.61
2023-05-05T07:28:09.555Z,24.61
2023-05-05T07:29:09.426Z,24.59
2023-05-05T07:30:13.085Z,24.58
2023-05-05T07:31:10.178Z,24.59
2023-05-05T07:32:09.028Z,24.61
2023-05-05T07:33:08.953Z,24.61
2023-05-05T07:34:08.682Z,24.62
2023-05-05T07:35:09.122Z,24.63
2023-05-05T07:36:08.550Z,24.64
2023-05-05T07:37:08.356Z,24.61
2023-05-05T07:38:08.785Z,24.55
2023-05-05T07:39:08.209Z,24.54
2023-05-05T07:40:08.940Z,24.57
2023-05-05T07:41:08.024Z,24.62
2023-05-05T07:42:08.733Z,24.61
2023-05-05T07:43:07.842Z,24.63
2023-05-05T07:44:07.744Z,24.68
2023-05-05T07:45:07.582Z,24.72
2023-05-05T07:46:07.571Z,24.71
2023-05-05T07:47:07.445Z,24.73
2023-05-05T07:48:07.192Z,24.72
2023-05-05T07:49:07.041Z,24.70
2023-05-05T07:50:07.204Z,24.69
2023-05-05T07:52:37.097Z,24.61
2023-05-05T07:53:26.345Z,24.59
2023-05-05T07:54:25.332Z,24.58
2023-05-05T07:55:25.300Z,24.58
2023-05-05T07:56:25.339Z,24.54
2023-05-05T07:57:25.381Z,24.50
2023-05-05T07:58:25.468Z,24.54
2023-05-05T07:59:25.433Z,24.58
2023-05-05T08:00:25.274Z,24.59
2023-05-05T08:01:25.271Z,24.61
2023-05-05T08:02:25.471Z,24.64
2023-05-05T08:03:25.381Z,24.65
2023-05-05T08:04:25.225Z,24.65
2023-05-05T08:05:25.182Z,24.64
2023-05-05T08:06:25.233Z,24.60
2023-05-05T08:07:25.171Z,24.58
2023-05-05T08:08:25.329Z,24.60
2023-05-05T08:09:25.201Z,24.61
2023-05-05T08:10:25.178Z,24.58
2023-05-05T08:11:27.739Z,24.57
2023-05-05T08:12:25.132Z,24.53
2023-05-05T08:13:25.102Z,24.49
2023-05-05T08:14:25.154Z,24.47
2023-05-05T08:15:25.080Z,24.40
2023-05-05T08:16:25.102Z,24.36
2023-05-05T08:17:25.111Z,24.33
2023-05-05T08:18:25.114Z,24.32
2023-05-05T08:19:29.149Z,24.26
2023-05-05T08:20:25.047Z,24.23
2023-05-05T08:21:25.050Z,24.19
2023-05-05T08:22:25.041Z,24.16
2023-05-05T08:23:25.044Z,24.15
2023-05-05T08:24:25.144Z,24.11
2023-05-05T08:25:25.089Z,24.11
2023-05-05T08:26:25.045Z,24.14
2023-05-05T08:27:25.080Z,24.16
2023-05-05T08:28:25.003Z,24.17
2023-05-05T08:29:25.591Z,24.16
2023-05-05T08:30:24.981Z,24.17
2023-05-05T08:31:25.058Z,24.17
2023-05-05T08:32:25.919Z,24.20
2023-05-05T08:33:25.012Z,24.24
2023-05-05T08:34:25.099Z,24.21
2023-05-05T08:35:24.982Z,24.23
2023-05-05T08:36:24.955Z,24.26
2023-05-05T08:37:24.981Z,24.30
2023-05-05T08:38:25.056Z,24.36
2023-05-05T08:39:25.090Z,24.31
2023-05-05T08:40:25.099Z,24.33
2023-05-05T08:41:25.046Z,24.37
2023-05-05T08:42:36.055Z,24.40
2023-05-05T08:43:26.052Z,24.42
2023-05-05T08:44:25.004Z,24.44
2023-05-05T08:45:25.027Z,24.43
2023-05-05T08:46:25.058Z,24.36
2023-05-05T08:47:25.001Z,24.36
2023-05-05T08:48:24.936Z,24.38
2023-05-05T08:49:24.929Z,24.40
2023-05-05T08:50:25.031Z,24.43
2023-05-05T08:51:24.936Z,24.44
2023-05-05T08:52:25.048Z,24.44
2023-05-05T08:53:25.039Z,24.43
2023-05-05T08:54:25.007Z,24.43
2023-05-05T08:55:25.268Z,24.46
2023-05-05T08:56:25.532Z,24.49
2023-05-05T08:57:24.979Z,24.52
2023-05-05T08:58:26.972Z,24.53
2023-05-05T08:59:25.082Z,24.55
2023-05-05T09:00:24.913Z,24.57
2023-05-05T09:01:24.912Z,24.59
2023-05-05T09:02:25.006Z,24.61
2023-05-05T09:03:24.933Z,24.63
2023-05-05T09:04:24.830Z,24.65
2023-05-05T09:05:24.826Z,24.66
2023-05-05T09:06:24.919Z,24.66
2023-05-05T09:07:24.758Z,24.67
2023-05-05T09:08:24.757Z,24.69
2023-05-05T09:09:24.723Z,24.72
2023-05-05T09:10:24.717Z,24.72
2023-05-05T09:11:24.686Z,24.75
2023-05-05T09:12:24.658Z,24.78
2023-05-05T09:13:24.676Z,24.78
2023-05-05T09:14:24.628Z,24.80
2023-05-05T09:15:24.596Z,24.80
2023-05-05T09:16:24.678Z,24.79
2023-05-05T09:17:24.577Z,24.81
2023-05-05T09:18:24.566Z,24.82
2023-05-05T09:19:24.533Z,24.83
2023-05-05T09:20:24.502Z,24.85
2023-05-05T09:21:24.516Z,24.86
2023-05-05T09:22:24.531Z,24.86
2023-05-05T09:23:24.445Z,24.87
2023-05-05T09:24:24.443Z,24.88
2023-05-05T09:25:24.474Z,24.89
2023-05-05T09:26:24.448Z,24.92
2023-05-05T09:27:24.458Z,24.92
2023-05-05T09:28:24.483Z,24.93
2023-05-05T09:29:24.493Z,24.94
2023-05-05T09:30:24.582Z,24.94
2023-05-05T09:31:24.628Z,24.96
2023-05-05T09:32:25.159Z,24.97
2023-05-05T09:33:24.531Z,24.97
2023-05-05T09:34:24.564Z,24.98
2023-05-05T09:35:24.543Z,24.98
2023-05-05T09:36:24.543Z,25.00
2023-05-05T09:37:25.048Z,25.01
2023-05-05T09:38:24.616Z,25.03
2023-05-05T09:39:24.548Z,25.03
2023-05-05T09:40:24.600Z,25.05
2023-05-05T09:41:24.562Z,25.05
2023-05-05T09:42:24.571Z,25.05
2023-05-05T09:43:24.598Z,25.04
2023-05-05T09:44:24.637Z,25.04
2023-05-05T09:45:25.672Z,25.00
2023-05-05T09:46:24.825Z,25.03
2023-05-05T09:47:29.889Z,25.05
2023-05-05T09:48:24.577Z,25.08
2023-05-05T09:49:24.547Z,25.09
2023-05-05T09:50:24.464Z,25.11
2023-05-05T09:51:24.456Z,25.10
2023-05-05T09:52:24.392Z,25.12
2023-05-05T09:53:24.491Z,25.15
2023-05-05T09:54:24.509Z,25.16
2023-05-05T09:55:24.294Z,25.20
2023-05-05T09:56:24.299Z,25.22
2023-05-05T09:57:24.250Z,25.25
2023-05-05T09:58:24.221Z,25.25
2023-05-05T09:59:24.703Z,25.27
2023-05-05T10:00:24.102Z,25.25
2023-05-05T10:01:24.083Z,25.28
2023-05-05T10:02:24.044Z,25.33
2023-05-05T10:03:24.001Z,25.30
2023-05-05T10:04:24.054Z,25.23
2023-05-05T10:05:23.967Z,25.20
2023-05-05T10:06:23.893Z,25.21
2023-05-05T10:07:23.857Z,25.26
2023-05-05T10:08:23.811Z,25.28
2023-05-05T10:09:23.877Z,25.34
2023-05-05T10:10:23.815Z,25.31
2023-05-05T10:11:23.710Z,25.35
2023-05-05T10:12:23.675Z,25.39
2023-05-05T10:13:23.669Z,25.42
2023-05-05T10:14:23.598Z,25.46
2023-05-05T10:15:23.568Z,25.49
2023-05-05T10:16:23.637Z,25.50
2023-05-05T10:17:23.480Z,25.52
2023-05-05T10:18:23.599Z,25.53
2023-05-05T10:19:23.413Z,25.53
2023-05-05T10:20:23.378Z,25.54
2023-05-05T10:21:23.307Z,25.55
2023-05-05T10:22:23.292Z,25.57
2023-05-05T10:23:23.321Z,25.57
2023-05-05T10:24:23.201Z,25.57
2023-05-05T10:25:23.151Z,25.52
2023-05-05T10:26:23.389Z,25.53
2023-05-05T10:27:23.117Z,25.56
2023-05-05T10:28:23.128Z,25.52
2023-05-05T10:29:23.016Z,25.54
2023-05-05T10:30:22.953Z,25.55
2023-05-05T10:31:26.419Z,25.57
2023-05-05T10:32:50.259Z,25.59
2023-05-05T10:34:23.098Z,25.63
2023-05-05T10:35:23.586Z,25.65
2023-05-05T10:36:23.444Z,25.67
2023-05-05T10:37:22.700Z,25.69
2023-05-05T10:38:24.116Z,25.71
2023-05-05T10:39:22.719Z,25.72
2023-05-05T10:40:22.673Z,25.73
2023-05-05T10:41:22.536Z,25.73
2023-05-05T10:42:22.527Z,25.73
2023-05-05T10:43:22.419Z,25.75
2023-05-05T10:44:22.364Z,25.76
2023-05-05T10:45:22.368Z,25.78
2023-05-05T10:46:22.337Z,25.79
2023-05-05T10:47:22.279Z,25.79
2023-05-05T10:48:22.222Z,25.81
2023-05-05T10:49:22.266Z,25.82
2023-05-05T10:50:22.120Z,25.83
2023-05-05T10:51:35.391Z,25.85
2023-05-05T10:52:23.019Z,25.85
2023-05-05T10:53:22.061Z,25.85
2023-05-05T10:54:21.979Z,25.85
2023-05-05T10:55:21.887Z,25.86
2023-05-05T10:56:21.850Z,25.85
2023-05-05T10:57:21.774Z,25.80
2023-05-05T10:58:21.880Z,25.75
2023-05-05T10:59:21.673Z,25.78
2023-05-05T11:00:21.648Z,25.81
2023-05-05T11:01:21.629Z,25.84
2023-05-05T11:02:21.537Z,25.85
2023-05-05T11:03:21.553Z,25.86
2023-05-05T11:04:21.484Z,25.87
2023-05-05T11:05:21.422Z,25.87
2023-05-05T11:06:21.357Z,25.88
2023-05-05T11:07:21.355Z,25.89
2023-05-05T11:08:21.238Z,25.90
2023-05-05T11:09:21.191Z,25.90
2023-05-05T11:10:21.315Z,25.87
2023-05-05T11:11:21.095Z,25.81
2023-05-05T11:12:21.117Z,25.82
2023-05-05T11:13:21.247Z,25.81
2023-05-05T11:14:21.031Z,25.82
2023-05-05T11:15:20.987Z,25.78
2023-05-05T11:16:21.035Z,25.79
2023-05-05T11:17:20.980Z,25.80
2023-05-05T11:18:20.946Z,25.83
2023-05-05T11:19:20.894Z,25.84
2023-05-05T11:20:21.032Z,25.85
2023-05-05T11:21:21.614Z,25.85
2023-05-05T11:22:20.823Z,25.86
2023-05-05T11:23:20.832Z,25.87
2023-05-05T11:24:20.797Z,25.87
2023-05-05T11:25:21.172Z,25.88
2023-05-05T11:26:20.748Z,25.89
2023-05-05T11:27:20.810Z,25.90
2023-05-05T11:28:20.711Z,25.92
2023-05-05T11:29:20.808Z,25.95
2023-05-05T11:30:20.747Z,25.99
2023-05-05T11:31:20.697Z,26.02
2023-05-05T11:32:20.670Z,26.05
2023-05-05T11:33:20.682Z,26.06
2023-05-05T11:34:20.647Z,26.07
2023-05-05T11:35:20.686Z,26.09
2023-05-05T11:36:20.684Z,26.08
2023-05-05T11:37:20.680Z,26.09
2023-05-05T11:38:20.714Z,26.08
2023-05-05T11:39:20.708Z,26.07
2023-05-05T11:40:20.719Z,26.07
2023-05-05T11:41:20.686Z,26.07
2023-05-05T11:42:20.681Z,26.06
2023-05-05T11:43:20.657Z,26.06
2023-05-05T11:44:20.618Z,26.05
2023-05-05T11:45:20.607Z,26.05
2023-05-05T11:46:20.696Z,26.04
2023-05-05T11:47:20.525Z,26.02
2023-05-05T11:48:20.464Z,26.00
2023-05-05T11:49:20.457Z,25.97
2023-05-05T11:50:20.397Z,25.96
2023-05-05T11:51:20.364Z,25.93
2023-05-05T11:52:20.339Z,25.91
2023-05-05T11:53:20.390Z,25.89
2023-05-05T11:54:20.259Z,25.87
2023-05-05T11:55:20.226Z,25.86
2023-05-05T11:56:20.199Z,25.85
2023-05-05T11:57:20.164Z,25.85
2023-05-05T11:58:20.131Z,25.84
2023-05-05T11:59:20.100Z,25.86
2023-05-05T12:00:20.187Z,25.86
2023-05-05T12:01:20.141Z,25.87
2023-05-05T12:02:20.381Z,25.87
2023-05-05T12:03:20.206Z,25.87
2023-05-05T12:04:20.090Z,25.88
2023-05-05T12:05:20.180Z,25.88
2023-05-05T12:06:20.211Z,25.88
2023-05-05T12:07:20.210Z,25.89
2023-05-05T12:08:20.149Z,25.88
2023-05-05T12:09:20.120Z,25.88
2023-05-05T12:10:20.103Z,25.88
2023-05-05T12:11:20.057Z,25.88
2023-05-05T12:12:20.116Z,25.89
2023-05-05T12:13:20.440Z,25.88
2023-05-05T12:14:20.074Z,25.88
2023-05-05T12:15:20.055Z,25.88
2023-05-05T12:16:20.045Z,25.88
2023-05-05T12:17:20.005Z,25.87
2023-05-05T12:18:20.051Z,25.86
2023-05-05T12:19:19.970Z,25.85
2023-05-05T12:20:19.932Z,25.84
2023-05-05T12:21:19.896Z,25.85
2023-05-05T12:22:19.864Z,25.85
2023-05-05T12:23:19.905Z,25.88
2023-05-05T12:24:19.838Z,25.87
2023-05-05T12:25:19.850Z,25.88
2023-05-05T12:26:19.767Z,25.88
2023-05-05T12:27:19.779Z,25.89
2023-05-05T12:28:20.631Z,25.89
2023-05-05T12:29:19.709Z,25.88
2023-05-05T12:30:19.765Z,25.90
2023-05-05T12:31:19.710Z,25.90
2023-05-05T12:32:19.614Z,25.91
2023-05-05T12:33:19.612Z,25.90
2023-05-05T12:34:19.786Z,25.89
2023-05-05T12:35:20.642Z,25.89
2023-05-05T12:36:20.132Z,25.89
2023-05-05T12:37:20.146Z,25.90
2023-05-05T12:38:19.595Z,25.90
2023-05-05T12:39:20.150Z,25.91
2023-05-05T12:40:19.433Z,25.89
2023-05-05T12:41:19.371Z,25.89
2023-05-05T12:42:19.449Z,25.89
2023-05-05T12:43:19.438Z,25.89
2023-05-05T12:44:19.424Z,25.90
2023-05-05T12:45:19.493Z,25.90
2023-05-05T12:46:19.338Z,25.90
2023-05-05T12:47:21.133Z,25.91
2023-05-05T12:48:19.515Z,25.90
2023-05-05T12:49:19.288Z,25.90
2023-05-05T12:50:21.130Z,25.91
2023-05-05T12:51:19.558Z,25.91
2023-05-05T12:52:19.217Z,25.90
2023-05-05T12:53:19.052Z,25.90